createdAt,value
2018-02-21T00:00:35.652Z,95277
2018-02-21T00:03:03.819Z,95276
2018-02-21T00:05:31.949Z,95270
2018-02-21T00:08:00.201Z,95264
2018-02-21T00:10:28.308Z,95269
2018-02-21T00:12:56.409Z,95272
2018-02-21T00:15:24.564Z,95270
2018-02-21T00:17:52.665Z,95273
2018-02-21T00:20:20.769Z,95272
2018-02-21T00:22:48.865Z,95278
2018-02-21T00:25:17.065Z,95274
2018-02-21T00:27:45.289Z,95268
2018-02-21T00:30:13.499Z,95278
2018-02-21T00:32:41.635Z,95278
2018-02-21T00:35:09.727Z,95276
2018-02-21T00:37:37.874Z,95276
2018-02-21T00:40:06.000Z,95276
2018-02-21T00:42:34.090Z,95274
2018-02-21T00:45:02.217Z,95271
2018-02-21T00:47:31.194Z,95269
2018-02-21T00:49:59.423Z,95274
2018-02-21T00:52:27.518Z,95276
2018-02-21T00:54:55.650Z,95274
2018-02-21T00:57:23.768Z,95276
2018-02-21T00:59:51.850Z,95277
2018-02-21T01:02:19.964Z,95271
2018-02-21T01:04:48.078Z,95280
2018-02-21T01:07:16.253Z,95283
2018-02-21T01:09:44.525Z,95269
2018-02-21T01:12:12.730Z,95264
2018-02-21T01:14:40.876Z,95276
2018-02-21T01:17:08.988Z,95278
2018-02-21T01:19:37.852Z,95270
2018-02-21T01:22:05.938Z,95274
2018-02-21T01:24:34.049Z,95279
2018-02-21T01:27:02.217Z,95286
2018-02-21T01:29:30.352Z,95275
2018-02-21T01:31:58.476Z,95275
2018-02-21T01:34:27.108Z,95278
2018-02-21T01:36:55.352Z,95280
2018-02-21T01:39:23.501Z,95279
2018-02-21T01:41:51.720Z,95278
2018-02-21T01:44:19.899Z,95278
2018-02-21T01:46:48.051Z,95266
2018-02-21T01:49:16.517Z,95278
2018-02-21T01:51:44.618Z,95269
2018-02-21T01:54:12.731Z,95275
2018-02-21T01:56:41.722Z,95277
2018-02-21T01:59:09.812Z,95279
2018-02-21T02:01:38.019Z,95280
2018-02-21T02:04:06.123Z,95274
2018-02-21T02:06:34.267Z,95282
2018-02-21T02:09:02.373Z,95284
2018-02-21T02:11:31.851Z,95271
2018-02-21T02:13:59.989Z,95283
2018-02-21T02:16:28.161Z,95281
2018-02-21T02:18:56.346Z,95284
2018-02-21T02:21:24.463Z,95290
2018-02-21T02:23:52.620Z,95296
2018-02-21T02:26:21.212Z,95295
2018-02-21T02:28:49.339Z,95299
2018-02-21T02:31:17.552Z,95286
2018-02-21T02:33:45.639Z,95290
2018-02-21T02:36:13.744Z,95285
2018-02-21T02:41:43.489Z,95290
2018-02-21T02:44:11.650Z,95291
2018-02-21T02:46:39.732Z,95287
2018-02-21T02:49:07.844Z,95302
2018-02-21T02:51:36.020Z,95305
2018-02-21T02:54:04.154Z,95310
2018-02-21T02:56:32.272Z,95305
2018-02-21T02:59:00.371Z,95307
2018-02-21T03:01:28.528Z,95297
2018-02-21T03:03:57.405Z,95306
2018-02-21T03:06:25.501Z,95306
2018-02-21T03:08:54.512Z,95302
2018-02-21T03:11:22.658Z,95305
2018-02-21T03:13:51.964Z,95303
2018-02-21T03:16:20.814Z,95304
2018-02-21T03:18:49.623Z,95298
2018-02-21T03:21:17.727Z,95304
2018-02-21T03:23:45.846Z,95306
2018-02-21T03:26:13.966Z,95300
2018-02-21T03:28:42.057Z,95290
2018-02-21T03:31:10.203Z,95301
2018-02-21T03:33:38.310Z,95296
2018-02-21T03:36:06.403Z,95300
2018-02-21T03:38:34.519Z,95301
2018-02-21T03:41:02.645Z,95299
2018-02-21T03:43:30.859Z,95293
2018-02-21T03:45:59.505Z,95299
2018-02-21T03:48:27.610Z,95311
2018-02-21T03:50:55.702Z,95309
2018-02-21T03:53:24.635Z,95304
2018-02-21T03:55:52.739Z,95305
2018-02-21T03:58:21.602Z,95309
2018-02-21T04:00:49.760Z,95307
2018-02-21T04:03:17.913Z,95313
2018-02-21T04:05:46.156Z,95312
2018-02-21T04:08:14.300Z,95306
2018-02-21T04:10:42.416Z,95321
2018-02-21T04:13:10.556Z,95313
2018-02-21T04:15:38.676Z,95327
2018-02-21T04:18:06.774Z,95318
2018-02-21T04:20:34.862Z,95322
2018-02-21T04:23:02.984Z,95324
2018-02-21T04:25:31.088Z,95318
2018-02-21T04:27:59.178Z,95320
2018-02-21T04:30:27.280Z,95321
2018-02-21T04:32:55.368Z,95325
2018-02-21T04:35:23.477Z,95326
2018-02-21T04:37:51.590Z,95329
2018-02-21T04:40:19.684Z,95330
2018-02-21T04:42:47.962Z,95327
2018-02-21T04:45:16.186Z,95320
2018-02-21T04:47:44.374Z,95334
2018-02-21T04:50:12.658Z,95342
2018-02-21T04:52:40.895Z,95349
2018-02-21T04:58:13.727Z,95350
2018-02-21T05:00:42.958Z,95351
2018-02-21T05:03:11.039Z,95340
2018-02-21T05:05:39.173Z,95344
2018-02-21T05:08:07.273Z,95349
2018-02-21T05:10:35.369Z,95343
2018-02-21T05:13:03.478Z,95355
2018-02-21T05:15:32.275Z,95363
2018-02-21T05:18:00.451Z,95345
2018-02-21T05:20:28.720Z,95353
2018-02-21T05:22:56.940Z,95363
2018-02-21T05:25:25.172Z,95357
2018-02-21T05:27:53.396Z,95355
2018-02-21T05:30:21.530Z,95359
2018-02-21T05:32:49.656Z,95356
2018-02-21T05:35:18.378Z,95366
2018-02-21T05:37:46.492Z,95365
2018-02-21T05:40:14.642Z,95364
2018-02-21T05:42:42.786Z,95368
2018-02-21T05:45:10.880Z,95373
2018-02-21T05:47:39.103Z,95376
2018-02-21T05:50:07.228Z,95374
2018-02-21T05:52:35.334Z,95373
2018-02-21T05:55:03.464Z,95381
2018-02-21T05:57:31.552Z,95382
2018-02-21T05:59:59.653Z,95381
2018-02-21T06:02:27.873Z,95394
2018-02-21T06:04:55.991Z,95394
2018-02-21T06:07:24.092Z,95382
2018-02-21T06:09:52.216Z,95387
2018-02-21T06:12:21.195Z,95384
2018-02-21T06:14:49.393Z,95381
2018-02-21T06:17:17.509Z,95372
2018-02-21T06:19:45.635Z,95387
2018-02-21T06:22:13.838Z,95395
2018-02-21T06:24:42.061Z,95391
2018-02-21T06:27:10.321Z,95389
2018-02-21T06:29:38.679Z,95394
2018-02-21T06:32:06.972Z,95392
2018-02-21T06:34:35.140Z,95397
2018-02-21T06:37:03.367Z,95398
2018-02-21T06:39:32.688Z,95388
2018-02-21T06:42:00.812Z,95387
2018-02-21T06:44:28.953Z,95387
2018-02-21T06:46:57.057Z,95394
2018-02-21T06:49:25.168Z,95383
2018-02-21T06:51:54.060Z,95391
2018-02-21T06:54:22.156Z,95386
2018-02-21T06:56:50.328Z,95384
2018-02-21T06:59:18.520Z,95390
2018-02-21T07:01:46.737Z,95384
2018-02-21T07:04:14.925Z,95390
2018-02-21T07:06:43.028Z,95388
2018-02-21T07:09:11.184Z,95401
2018-02-21T07:11:40.085Z,95399
2018-02-21T07:14:08.219Z,95396
2018-02-21T07:16:36.310Z,95394
2018-02-21T07:19:04.487Z,95400
2018-02-21T07:21:32.640Z,95404
2018-02-21T07:24:00.752Z,95401
2018-02-21T07:26:28.912Z,95403
2018-02-21T07:28:57.881Z,95420
2018-02-21T07:31:27.473Z,95415
2018-02-21T07:33:55.869Z,95417
2018-02-21T07:36:24.000Z,95407
2018-02-21T07:38:52.400Z,95413
2018-02-21T07:41:22.757Z,95414
2018-02-21T07:43:54.244Z,95413
2018-02-21T07:46:23.127Z,95418
2018-02-21T07:48:51.233Z,95416
2018-02-21T07:51:19.983Z,95414
2018-02-21T07:53:48.094Z,95416
2018-02-21T07:56:20.343Z,95420
2018-02-21T07:58:48.466Z,95423
2018-02-21T08:01:16.579Z,95424
2018-02-21T08:03:44.702Z,95424
2018-02-21T08:06:12.828Z,95429
2018-02-21T08:08:40.956Z,95432
2018-02-21T08:11:09.130Z,95437
2018-02-21T08:13:37.229Z,95419
2018-02-21T08:16:05.348Z,95431
2018-02-21T08:18:33.440Z,95428
2018-02-21T08:21:01.553Z,95429
2018-02-21T08:23:29.646Z,95420
2018-02-21T08:25:57.753Z,95424
2018-02-21T08:28:25.854Z,95436
2018-02-21T08:30:53.956Z,95432
2018-02-21T08:33:22.079Z,95434
2018-02-21T08:35:50.155Z,95434
2018-02-21T08:38:18.355Z,95440
2018-02-21T08:40:46.787Z,95437
2018-02-21T08:43:14.938Z,95444
2018-02-21T08:45:43.033Z,95434
2018-02-21T08:48:11.133Z,95446
2018-02-21T08:50:39.409Z,95434
2018-02-21T08:53:07.613Z,95447
2018-02-21T08:55:35.889Z,95444
2018-02-21T08:58:04.984Z,95437
2018-02-21T09:00:33.140Z,95432
2018-02-21T09:03:01.245Z,95441
2018-02-21T09:05:29.445Z,95443
2018-02-21T09:07:58.527Z,95449
2018-02-21T09:10:26.627Z,95439
2018-02-21T09:12:54.785Z,95439
2018-02-21T09:15:22.887Z,95436
2018-02-21T09:17:51.822Z,95440
2018-02-21T09:20:19.933Z,95440
2018-02-21T09:22:48.060Z,95436
2018-02-21T09:25:16.170Z,95429
2018-02-21T09:27:44.295Z,95430
2018-02-21T09:30:12.424Z,95424
2018-02-21T09:32:40.577Z,95421
2018-02-21T09:35:08.742Z,95425
2018-02-21T09:37:36.852Z,95422
2018-02-21T09:40:05.020Z,95422
2018-02-21T09:42:33.118Z,95419
2018-02-21T09:45:01.999Z,95432
2018-02-21T09:47:30.110Z,95417
2018-02-21T09:49:58.286Z,95413
2018-02-21T09:52:26.418Z,95409
2018-02-21T09:54:54.562Z,95416
2018-02-21T09:57:22.632Z,95416
2018-02-21T09:59:50.759Z,95406
2018-02-21T10:02:18.869Z,95409
2018-02-21T10:04:46.981Z,95407
2018-02-21T10:07:15.099Z,95407
2018-02-21T10:09:43.267Z,95403
2018-02-21T10:12:11.581Z,95409
2018-02-21T10:14:40.441Z,95408
2018-02-21T10:17:08.612Z,95411
2018-02-21T10:19:36.752Z,95410
2018-02-21T10:22:04.835Z,95413
2018-02-21T10:24:32.945Z,95410
2018-02-21T10:27:01.063Z,95420
2018-02-21T10:29:29.275Z,95408
2018-02-21T10:31:57.491Z,95403
2018-02-21T10:34:25.618Z,95404
2018-02-21T10:36:53.763Z,95402
2018-02-21T10:39:21.940Z,95399
2018-02-21T10:41:50.513Z,95402
2018-02-21T10:44:18.782Z,95396
2018-02-21T10:46:47.665Z,95395
2018-02-21T10:49:15.807Z,95397
2018-02-21T10:51:43.918Z,95398
2018-02-21T10:54:12.031Z,95391
2018-02-21T10:56:40.130Z,95385
2018-02-21T10:59:09.198Z,95376
2018-02-21T11:01:37.414Z,95382
2018-02-21T11:04:09.709Z,95381
2018-02-21T11:06:55.698Z,95384
2018-02-21T11:09:28.572Z,95381
2018-02-21T11:11:58.449Z,95382
2018-02-21T11:14:34.887Z,95386
2018-02-21T11:17:14.663Z,95377
2018-02-21T11:19:47.284Z,95376
2018-02-21T11:22:15.461Z,95372
2018-02-21T11:24:43.572Z,95365
2018-02-21T11:27:12.441Z,95369
2018-02-21T11:29:40.579Z,95370
2018-02-21T11:32:09.847Z,95363
2018-02-21T11:34:37.981Z,95358
2018-02-21T11:37:06.092Z,95357
2018-02-21T11:39:34.195Z,95360
2018-02-21T11:42:02.295Z,95369
2018-02-21T11:44:30.440Z,95364
2018-02-21T11:46:58.597Z,95356
2018-02-21T11:49:26.751Z,95351
2018-02-21T11:51:55.221Z,95357
2018-02-21T11:54:23.409Z,95354
2018-02-21T11:56:52.998Z,95343
2018-02-21T11:59:21.154Z,95347
2018-02-21T12:05:09.466Z,95350
2018-02-21T12:07:37.612Z,95342
2018-02-21T12:10:05.796Z,95342
2018-02-21T12:12:33.949Z,95352
2018-02-21T12:15:02.077Z,95346
2018-02-21T12:17:30.310Z,95342
2018-02-21T12:19:58.478Z,95343
2018-02-21T12:22:26.718Z,95353
2018-02-21T12:24:54.962Z,95345
2018-02-21T12:27:23.152Z,95341
2018-02-21T12:29:51.362Z,95336
2018-02-21T12:32:20.382Z,95341
2018-02-21T12:34:48.520Z,95354
2018-02-21T12:37:16.710Z,95343
2018-02-21T12:39:44.854Z,95349
2018-02-21T12:42:12.988Z,95342
2018-02-21T12:44:41.129Z,95355
2018-02-21T12:47:09.389Z,95350
2018-02-21T12:49:37.534Z,95342
2018-02-21T12:52:05.667Z,95349
2018-02-21T12:54:33.836Z,95346
2018-02-21T12:57:01.950Z,95338
2018-02-21T12:59:30.082Z,95334
2018-02-21T13:01:58.251Z,95335
2018-02-21T13:04:26.481Z,95347
2018-02-21T13:06:54.619Z,95336
2018-02-21T13:09:22.728Z,95329
2018-02-21T13:11:50.874Z,95331
2018-02-21T13:14:19.023Z,95335
2018-02-21T13:16:47.169Z,95347
2018-02-21T13:19:15.338Z,95339
2018-02-21T13:21:43.572Z,95330
2018-02-21T13:24:11.728Z,95339
2018-02-21T13:26:39.885Z,95337
2018-02-21T13:29:08.072Z,95338
2018-02-21T13:31:36.187Z,95343
2018-02-21T13:34:21.526Z,95336
2018-02-21T13:49:45.424Z,95333
2018-02-21T13:52:13.550Z,95324
2018-02-21T13:54:42.784Z,95316
2018-02-21T13:57:11.008Z,95329
2018-02-21T13:59:39.144Z,95321
2018-02-21T14:02:08.305Z,95330
2018-02-21T14:04:36.420Z,95331
2018-02-21T14:07:04.582Z,95332
2018-02-21T14:09:32.704Z,95323
2018-02-21T14:12:00.834Z,95327
2018-02-21T14:14:29.042Z,95320
2018-02-21T14:16:57.164Z,95324
2018-02-21T14:19:25.310Z,95317
2018-02-21T14:24:36.582Z,95309
2018-02-21T14:27:05.380Z,95312
2018-02-21T14:29:38.521Z,95324
2018-02-21T14:32:10.524Z,95319
2018-02-21T14:34:39.178Z,95315
2018-02-21T14:37:15.953Z,95318
2018-02-21T14:39:52.615Z,95319
2018-02-21T14:42:28.673Z,95312
2018-02-21T14:45:05.445Z,95319
2018-02-21T15:00:28.608Z,95326
2018-02-21T15:02:56.735Z,95319
2018-02-21T15:05:33.444Z,95316
2018-02-21T15:08:01.674Z,95326
2018-02-21T15:10:29.784Z,95326
2018-02-21T15:12:57.908Z,95326
2018-02-21T15:15:26.000Z,95325
2018-02-21T15:17:54.112Z,95314
2018-02-21T15:20:22.248Z,95327
2018-02-21T15:22:50.374Z,95326
2018-02-21T15:25:18.526Z,95320
2018-02-21T15:27:46.658Z,95330
2018-02-21T15:30:14.788Z,95332
2018-02-21T15:32:42.885Z,95318
2018-02-21T15:35:11.425Z,95327
2018-02-21T15:37:39.620Z,95327
2018-02-21T15:40:07.820Z,95330
2018-02-21T15:42:35.922Z,95324
2018-02-21T15:45:04.012Z,95326
2018-02-21T15:47:33.128Z,95322
2018-02-21T15:50:01.262Z,95333
2018-02-21T15:52:29.372Z,95345
2018-02-21T15:54:57.749Z,95335
2018-02-21T15:57:25.965Z,95338
2018-02-21T15:59:54.093Z,95333
2018-02-21T16:02:22.972Z,95341
2018-02-21T16:04:51.831Z,95352
2018-02-21T16:07:20.109Z,95336
2018-02-21T16:09:48.316Z,95346
2018-02-21T16:12:16.583Z,95347
2018-02-21T16:14:44.884Z,95349
2018-02-21T16:17:13.016Z,95341
2018-02-21T16:19:41.299Z,95343
2018-02-21T16:22:09.492Z,95339
2018-02-21T16:24:37.637Z,95338
2018-02-21T16:27:06.137Z,95335
2018-02-21T16:29:34.334Z,95337
2018-02-21T16:32:02.830Z,95348
2018-02-21T16:34:30.978Z,95348
2018-02-21T16:36:59.905Z,95338
2018-02-21T16:39:28.013Z,95347
2018-02-21T16:41:56.721Z,95348
2018-02-21T16:44:24.905Z,95356
2018-02-21T16:46:53.842Z,95357
2018-02-21T16:49:21.978Z,95352
2018-02-21T16:51:50.226Z,95355
2018-02-21T16:54:22.046Z,95353
2018-02-21T16:56:50.180Z,95365
2018-02-21T16:59:18.282Z,95362
2018-02-21T17:01:46.442Z,95356
2018-02-21T17:04:14.662Z,95354
2018-02-21T17:06:42.840Z,95360
2018-02-21T17:09:11.048Z,95355
2018-02-21T17:11:39.133Z,95362
2018-02-21T17:14:07.299Z,95366
2018-02-21T17:16:35.412Z,95358
2018-02-21T17:19:03.508Z,95363
2018-02-21T17:21:31.614Z,95360
2018-02-21T17:23:59.704Z,95364
2018-02-21T17:26:28.203Z,95370
2018-02-21T17:28:56.434Z,95376
2018-02-21T17:31:24.543Z,95366
2018-02-21T17:33:52.665Z,95375
2018-02-21T17:36:20.812Z,95371
2018-02-21T17:38:48.906Z,95377
2018-02-21T17:41:22.437Z,95365
2018-02-21T17:43:50.673Z,95377
2018-02-21T17:46:18.784Z,95364
2018-02-21T17:48:46.887Z,95375
2018-02-21T17:51:15.008Z,95374
2018-02-21T17:53:43.120Z,95382
2018-02-21T17:56:11.221Z,95370
2018-02-21T17:58:39.351Z,95382
2018-02-21T18:01:07.460Z,95369
2018-02-21T18:03:35.580Z,95373
2018-02-21T18:06:03.712Z,95370
2018-02-21T18:08:32.167Z,95377
2018-02-21T18:11:00.515Z,95376
2018-02-21T18:13:28.614Z,95367
2018-02-21T18:15:56.717Z,95371
2018-02-21T18:18:24.816Z,95372
2018-02-21T18:20:52.924Z,95370
2018-02-21T18:23:21.612Z,95368
2018-02-21T18:25:49.772Z,95365
2018-02-21T18:28:17.908Z,95363
2018-02-21T18:30:46.503Z,95372
2018-02-21T18:33:15.428Z,95364
2018-02-21T18:35:43.656Z,95367
2018-02-21T18:38:12.094Z,95373
2018-02-21T18:40:40.240Z,95367
2018-02-21T18:43:08.443Z,95363
2018-02-21T18:45:36.677Z,95366
2018-02-21T18:48:04.956Z,95373
2018-02-21T18:50:33.132Z,95375
2018-02-21T18:53:01.250Z,95374
2018-02-21T18:55:29.342Z,95383
2018-02-21T18:57:57.488Z,95371
2018-02-21T19:00:26.183Z,95370
2018-02-21T19:02:54.331Z,95378
2018-02-21T19:05:22.461Z,95374
2018-02-21T19:07:51.089Z,95369
2018-02-21T19:10:19.316Z,95375
2018-02-21T19:12:48.258Z,95368
2018-02-21T19:15:16.453Z,95367
2018-02-21T19:17:44.557Z,95367
2018-02-21T19:20:13.300Z,95366
2018-02-21T19:22:41.828Z,95371
2018-02-21T19:25:10.024Z,95369
2018-02-21T19:27:38.110Z,95375
2018-02-21T19:30:06.245Z,95370
2018-02-21T19:32:34.368Z,95369
2018-02-21T19:35:02.508Z,95365
2018-02-21T19:37:31.392Z,95369
2018-02-21T19:39:59.532Z,95373
2018-02-21T19:42:27.652Z,95375
2018-02-21T19:44:55.761Z,95367
2018-02-21T19:47:23.884Z,95374
2018-02-21T19:49:52.755Z,95380
2018-02-21T19:52:20.905Z,95379
2018-02-21T19:54:49.008Z,95372
2018-02-21T19:57:17.148Z,95387
2018-02-21T19:59:45.217Z,95382
2018-02-21T20:02:13.389Z,95377
2018-02-21T20:04:41.518Z,95378
2018-02-21T20:07:09.709Z,95374
2018-02-21T20:09:37.762Z,95382
2018-02-21T20:12:05.873Z,95377
2018-02-21T20:14:33.989Z,95371
2018-02-21T20:17:02.078Z,95374
2018-02-21T20:19:30.292Z,95372
2018-02-21T20:21:58.417Z,95375
2018-02-21T20:24:26.600Z,95377
2018-02-21T20:26:54.810Z,95364
2018-02-21T20:29:23.056Z,95367
2018-02-21T20:31:51.209Z,95364
2018-02-21T20:34:19.299Z,95364
2018-02-21T20:36:47.420Z,95355
2018-02-21T20:39:15.551Z,95356
2018-02-21T20:41:43.678Z,95371
2018-02-21T20:44:11.801Z,95363
2018-02-21T20:46:39.922Z,95359
2018-02-21T20:49:08.388Z,95356
2018-02-21T20:51:36.518Z,95366
2018-02-21T20:54:04.626Z,95362
2018-02-21T20:56:32.854Z,95357
2018-02-21T20:59:01.055Z,95359
2018-02-21T21:01:29.266Z,95360
2018-02-21T21:03:57.397Z,95353
2018-02-21T21:06:25.500Z,95353
2018-02-21T21:08:53.628Z,95365
2018-02-21T21:11:22.613Z,95357
2018-02-21T21:13:50.731Z,95351
2018-02-21T21:16:18.872Z,95362
2018-02-21T21:18:47.061Z,95357
2018-02-21T21:21:15.243Z,95359
2018-02-21T21:23:44.088Z,95357
2018-02-21T21:26:12.183Z,95366
2018-02-21T21:28:41.159Z,95353
2018-02-21T21:31:10.089Z,95348
2018-02-21T21:33:38.226Z,95347
2018-02-21T21:36:06.349Z,95350
2018-02-21T21:38:34.475Z,95334
2018-02-21T21:41:03.381Z,95334
2018-02-21T21:43:31.497Z,95329
2018-02-21T21:45:59.644Z,95325
2018-02-21T21:48:27.753Z,95331
2018-02-21T21:50:55.924Z,95319
2018-02-21T21:53:24.047Z,95318
2018-02-21T21:55:52.162Z,95309
2018-02-21T21:58:20.287Z,95320
2018-02-21T22:00:48.455Z,95321
2018-02-21T22:03:16.519Z,95314
2018-02-21T22:05:44.650Z,95317
2018-02-21T22:08:12.908Z,95309
2018-02-21T22:10:41.038Z,95316
2018-02-21T22:13:09.939Z,95304
2018-02-21T22:15:38.058Z,95304
2018-02-21T22:18:06.162Z,95304
2018-02-21T22:20:34.312Z,95297
2018-02-21T22:23:02.470Z,95299
2018-02-21T22:25:30.581Z,95303
2018-02-21T22:27:58.686Z,95300
2018-02-21T22:30:26.798Z,95307
2018-02-21T22:32:54.922Z,95304
2018-02-21T22:35:23.051Z,95297
2018-02-21T22:37:51.162Z,95301
2018-02-21T22:40:19.264Z,95294
2018-02-21T22:42:47.404Z,95293
2018-02-21T22:45:16.276Z,95302
2018-02-21T22:47:44.391Z,95301
2018-02-21T22:50:13.257Z,95300
2018-02-21T22:52:41.377Z,95304
2018-02-21T22:55:09.487Z,95303
2018-02-21T22:57:37.705Z,95300
2018-02-21T23:00:05.811Z,95295
2018-02-21T23:02:33.927Z,95287
2018-02-21T23:05:02.062Z,95292
2018-02-21T23:07:30.179Z,95291
2018-02-21T23:09:58.303Z,95294
2018-02-21T23:12:26.459Z,95302
2018-02-21T23:14:54.581Z,95293
2018-02-21T23:17:23.464Z,95295
2018-02-21T23:19:52.377Z,95290
2018-02-21T23:22:20.499Z,95291
2018-02-21T23:24:48.623Z,95293
2018-02-21T23:27:16.818Z,95286
2018-02-21T23:29:45.046Z,95291
2018-02-21T23:32:13.263Z,95280
2018-02-21T23:34:41.382Z,95289
2018-02-21T23:37:09.509Z,95290
2018-02-21T23:39:37.616Z,95286
2018-02-21T23:42:05.759Z,95284
2018-02-21T23:44:33.912Z,95283
2018-02-21T23:47:02.104Z,95281
2018-02-21T23:49:30.304Z,95280
2018-02-21T23:51:58.438Z,95287
2018-02-21T23:54:26.570Z,95284
2018-02-21T23:56:54.697Z,95278
2018-02-21T23:59:23.602Z,95276
